createdAt,value
2018-11-11T00:00:28.294Z,5.00
2018-11-11T00:03:02.369Z,5.87
2018-11-11T00:05:36.498Z,5.77
2018-11-11T00:08:10.580Z,5.30
2018-11-11T00:10:44.711Z,5.57
2018-11-11T00:13:18.881Z,5.53
2018-11-11T00:15:52.865Z,5.10
2018-11-11T00:18:26.937Z,5.03
2018-11-11T00:21:00.980Z,4.97
2018-11-11T00:23:35.885Z,4.83
2018-11-11T00:26:10.025Z,4.80
2018-11-11T00:28:44.141Z,4.73
2018-11-11T00:31:18.131Z,4.83
2018-11-11T00:33:52.461Z,5.87
2018-11-11T00:36:27.499Z,5.23
2018-11-11T00:39:01.508Z,4.87
2018-11-11T00:41:36.517Z,5.20
2018-11-11T00:44:10.567Z,5.77
2018-11-11T00:46:44.565Z,5.20
2018-11-11T00:49:18.795Z,6.50
2018-11-11T00:51:52.924Z,4.43
2018-11-11T00:54:26.874Z,4.63
2018-11-11T00:57:01.070Z,4.67
2018-11-11T00:59:35.236Z,4.30
2018-11-11T01:02:09.349Z,4.43
2018-11-11T01:04:43.470Z,4.73
2018-11-11T01:07:17.764Z,4.40
2018-11-11T01:09:51.712Z,4.07
2018-11-11T01:12:25.881Z,3.87
2018-11-11T01:15:00.713Z,4.13
2018-11-11T01:17:34.944Z,4.63
2018-11-11T01:20:09.174Z,4.93
2018-11-11T01:22:43.287Z,5.13
2018-11-11T01:25:17.451Z,5.13
2018-11-11T01:27:51.461Z,5.40
2018-11-11T01:30:25.467Z,5.83
2018-11-11T01:32:59.488Z,5.63
2018-11-11T01:35:33.784Z,5.13
2018-11-11T01:38:07.891Z,5.23
2018-11-11T01:40:41.777Z,4.43
2018-11-11T01:43:16.577Z,4.70
2018-11-11T01:45:50.710Z,4.13
2018-11-11T01:48:24.821Z,4.63
2018-11-11T01:50:58.801Z,4.27
2018-11-11T01:53:32.937Z,3.83
2018-11-11T01:56:06.950Z,4.73
2018-11-11T01:58:41.041Z,4.63
2018-11-11T02:01:15.149Z,4.97
2018-11-11T02:03:49.272Z,4.90
2018-11-11T02:06:23.382Z,5.23
2018-11-11T02:08:57.450Z,5.13
2018-11-11T02:11:31.491Z,6.20
2018-11-11T02:14:05.551Z,5.30
2018-11-11T02:16:39.570Z,5.77
2018-11-11T02:19:14.374Z,6.50
2018-11-11T02:21:48.565Z,6.30
2018-11-11T02:24:22.581Z,5.77
2018-11-11T02:26:56.715Z,6.13
2018-11-11T02:29:30.605Z,6.43
2018-11-11T02:32:04.713Z,5.90
2018-11-11T02:34:38.811Z,5.30
2018-11-11T02:37:12.891Z,5.40
2018-11-11T02:39:46.769Z,5.70
2018-11-11T02:42:20.785Z,6.07
2018-11-11T02:44:54.855Z,5.37
2018-11-11T02:47:28.875Z,5.90
2018-11-11T02:50:02.969Z,5.93
2018-11-11T02:52:37.081Z,5.93
2018-11-11T02:55:11.229Z,5.80
2018-11-11T02:57:45.221Z,5.63
2018-11-11T03:00:19.328Z,6.77
2018-11-11T03:02:53.329Z,6.00
2018-11-11T03:05:27.347Z,5.73
2018-11-11T03:08:01.342Z,6.47
2018-11-11T03:10:35.417Z,6.53
2018-11-11T03:13:09.418Z,7.73
2018-11-11T03:15:43.273Z,5.97
2018-11-11T03:18:17.305Z,7.10
2018-11-11T03:20:51.336Z,5.73
2018-11-11T03:23:25.433Z,4.90
2018-11-11T03:25:59.425Z,4.77
2018-11-11T03:28:33.495Z,5.57
2018-11-11T03:31:07.463Z,5.80
2018-11-11T03:33:41.760Z,4.40
2018-11-11T03:36:16.113Z,4.70
2018-11-11T03:38:50.097Z,4.97
2018-11-11T03:41:25.033Z,4.37
2018-11-11T03:43:59.156Z,4.43
2018-11-11T03:46:33.178Z,3.67
2018-11-11T03:49:07.164Z,3.80
2018-11-11T03:51:53.059Z,3.80
2018-11-11T03:54:26.961Z,4.50
2018-11-11T03:57:01.048Z,3.90
2018-11-11T03:59:35.069Z,3.70
2018-11-11T04:02:09.881Z,3.53
2018-11-11T04:04:43.781Z,3.13
2018-11-11T04:07:17.870Z,3.50
2018-11-11T04:09:59.697Z,3.13
2018-11-11T04:12:33.781Z,3.20
2018-11-11T04:15:07.857Z,2.67
2018-11-11T04:17:41.725Z,3.33
2018-11-11T04:20:15.847Z,3.70
2018-11-11T04:22:49.965Z,2.97
2018-11-11T04:25:23.985Z,5.37
2018-11-11T04:27:58.023Z,5.27
2018-11-11T04:30:31.986Z,4.63
2018-11-11T04:33:06.028Z,3.33
2018-11-11T04:35:40.145Z,3.23
2018-11-11T04:38:14.985Z,3.30
2018-11-11T04:40:49.056Z,3.43
2018-11-11T04:43:23.205Z,3.30
2018-11-11T04:45:57.972Z,3.43
2018-11-11T04:48:32.017Z,3.30
2018-11-11T04:51:06.150Z,4.80
2018-11-11T04:53:40.073Z,5.73
2018-11-11T04:56:14.057Z,5.83
2018-11-11T04:58:48.088Z,4.60
2018-11-11T05:01:22.232Z,4.20
2018-11-11T05:03:56.298Z,3.10
2018-11-11T05:06:30.367Z,2.93
2018-11-11T05:09:04.605Z,3.47
2018-11-11T05:11:38.637Z,3.20
2018-11-11T05:14:12.582Z,3.23
2018-11-11T05:16:46.665Z,3.30
2018-11-11T05:19:20.782Z,3.30
2018-11-11T05:21:55.014Z,2.73
2018-11-11T05:24:28.897Z,2.97
2018-11-11T05:27:02.927Z,3.13
2018-11-11T05:29:37.009Z,2.80
2018-11-11T05:32:11.154Z,3.00
2018-11-11T05:34:45.178Z,3.03
2018-11-11T05:37:19.077Z,2.97
2018-11-11T05:39:53.207Z,2.70
2018-11-11T05:42:27.170Z,2.37
2018-11-11T05:45:01.232Z,3.10
2018-11-11T05:47:35.219Z,3.20
2018-11-11T05:50:09.344Z,2.83
2018-11-11T05:52:43.225Z,2.57
2018-11-11T05:55:17.345Z,3.10
2018-11-11T05:57:51.321Z,3.20
2018-11-11T06:00:25.286Z,3.00
2018-11-11T06:03:00.125Z,4.07
2018-11-11T06:05:34.113Z,3.70
2018-11-11T06:08:08.075Z,3.10
2018-11-11T06:10:42.032Z,3.60
2018-11-11T06:13:16.166Z,3.33
2018-11-11T06:15:50.053Z,3.80
2018-11-11T06:18:24.066Z,3.33
2018-11-11T06:20:58.777Z,3.83
2018-11-11T06:23:32.731Z,4.00
2018-11-11T06:26:06.880Z,4.37
2018-11-11T06:28:40.926Z,4.53
2018-11-11T06:31:15.602Z,4.30
2018-11-11T06:33:49.696Z,4.77
2018-11-11T06:36:23.827Z,4.10
2018-11-11T06:38:57.914Z,3.90
2018-11-11T06:41:31.906Z,4.87
2018-11-11T06:44:06.055Z,3.63
2018-11-11T06:46:40.142Z,3.67
2018-11-11T06:49:14.202Z,4.10
2018-11-11T06:51:48.245Z,4.27
2018-11-11T06:54:22.393Z,4.07
2018-11-11T06:56:56.518Z,3.77
2018-11-11T06:59:31.222Z,3.70
2018-11-11T07:02:05.344Z,3.73
2018-11-11T07:04:39.385Z,3.93
2018-11-11T07:07:13.293Z,3.17
2018-11-11T07:09:47.401Z,3.90
2018-11-11T07:12:21.429Z,3.70
2018-11-11T07:14:55.614Z,3.90
2018-11-11T07:17:29.628Z,3.03
2018-11-11T07:20:04.544Z,3.50
2018-11-11T07:22:38.711Z,3.13
2018-11-11T07:25:12.873Z,2.57
2018-11-11T07:27:46.935Z,2.57
2018-11-11T07:30:21.029Z,2.20
2018-11-11T07:32:55.101Z,2.43
2018-11-11T07:35:29.132Z,2.20
2018-11-11T07:38:03.128Z,1.73
2018-11-11T07:40:37.892Z,1.83
2018-11-11T07:43:12.807Z,1.97
2018-11-11T07:45:46.853Z,1.83
2018-11-11T07:48:20.809Z,1.53
2018-11-11T07:50:54.906Z,1.93
2018-11-11T07:53:28.974Z,1.60
2018-11-11T07:56:03.051Z,1.47
2018-11-11T07:58:37.260Z,1.63
2018-11-11T08:01:11.174Z,1.30
2018-11-11T08:03:45.137Z,1.30
2018-11-11T08:06:19.334Z,1.27
2018-11-11T08:08:53.493Z,1.23
2018-11-11T08:11:42.603Z,0.83
2018-11-11T08:14:16.501Z,0.80
2018-11-11T08:16:50.666Z,1.00
2018-11-11T08:19:24.793Z,0.73
2018-11-11T08:21:58.849Z,0.80
2018-11-11T08:24:32.853Z,0.80
2018-11-11T08:27:06.957Z,1.00
2018-11-11T08:29:41.065Z,0.90
2018-11-11T08:32:15.231Z,1.27
2018-11-11T08:34:49.289Z,1.10
2018-11-11T08:37:23.312Z,1.13
2018-11-11T08:39:57.336Z,1.00
2018-11-11T08:42:31.425Z,1.20
2018-11-11T08:45:06.188Z,1.67
2018-11-11T08:47:41.238Z,1.43
2018-11-11T08:50:15.915Z,1.30
2018-11-11T08:52:51.058Z,1.20
2018-11-11T08:55:25.795Z,1.23
2018-11-11T08:57:59.972Z,1.30
2018-11-11T09:00:34.757Z,1.47
2018-11-11T09:03:08.956Z,1.50
2018-11-11T09:05:43.802Z,1.50
2018-11-11T09:08:17.840Z,1.33
2018-11-11T09:10:51.965Z,1.67
2018-11-11T09:13:26.004Z,1.70
2018-11-11T09:16:00.856Z,2.07
2018-11-11T09:18:35.049Z,2.00
2018-11-11T09:21:08.991Z,2.10
2018-11-11T09:23:43.028Z,1.90
2018-11-11T09:26:17.240Z,2.37
2018-11-11T09:28:51.402Z,1.60
2018-11-11T09:31:25.567Z,1.77
2018-11-11T09:33:59.816Z,1.70
2018-11-11T09:36:34.571Z,1.87
2018-11-11T09:39:09.027Z,1.93
2018-11-11T09:41:43.078Z,1.93
2018-11-11T09:44:17.205Z,1.70
2018-11-11T09:46:51.360Z,2.23
2018-11-11T09:49:25.444Z,2.17
2018-11-11T09:52:00.298Z,1.80
2018-11-11T09:54:34.402Z,2.17
2018-11-11T09:57:08.645Z,1.83
2018-11-11T09:59:42.623Z,2.00
2018-11-11T10:02:16.772Z,1.70
2018-11-11T10:04:50.765Z,1.80
2018-11-11T10:07:25.614Z,1.53
2018-11-11T10:09:59.730Z,1.70
2018-11-11T10:12:33.906Z,1.57
2018-11-11T10:15:07.831Z,1.87
2018-11-11T10:17:41.859Z,1.60
2018-11-11T10:20:15.864Z,1.60
2018-11-11T10:22:50.139Z,1.47
2018-11-11T10:25:25.188Z,1.50
2018-11-11T10:27:59.939Z,1.70
2018-11-11T10:30:34.061Z,1.63
2018-11-11T10:33:13.758Z,1.73
2018-11-11T10:35:47.826Z,1.70
2018-11-11T10:38:21.838Z,1.10
2018-11-11T10:40:55.897Z,1.30
2018-11-11T10:43:30.002Z,1.80
2018-11-11T10:46:04.848Z,1.37
2018-11-11T10:48:39.717Z,1.80
2018-11-11T10:51:21.104Z,1.77
2018-11-11T10:53:55.169Z,1.30
2018-11-11T10:56:29.280Z,1.40
2018-11-11T10:59:03.413Z,1.80
2018-11-11T11:01:37.543Z,1.57
2018-11-11T11:04:11.511Z,1.70
2018-11-11T11:06:45.554Z,1.43
2018-11-11T11:09:19.666Z,1.30
2018-11-11T11:11:53.782Z,1.30
2018-11-11T11:14:27.725Z,1.30
2018-11-11T11:17:02.255Z,1.23
2018-11-11T11:19:36.216Z,1.10
2018-11-11T11:22:10.269Z,1.30
2018-11-11T11:24:44.341Z,1.00
2018-11-11T11:27:18.387Z,1.20
2018-11-11T11:29:52.457Z,1.30
2018-11-11T11:32:26.467Z,1.10
2018-11-11T11:35:00.410Z,1.20
2018-11-11T11:37:34.541Z,1.20
2018-11-11T11:40:08.609Z,1.13
2018-11-11T11:42:42.771Z,1.47
2018-11-11T11:45:16.914Z,1.13
2018-11-11T11:47:51.812Z,0.83
2018-11-11T11:50:25.915Z,0.90
2018-11-11T11:53:00.172Z,1.40
2018-11-11T11:55:34.209Z,1.05
2018-11-11T11:58:08.986Z,1.13
2018-11-11T12:00:43.026Z,1.23
2018-11-11T12:03:16.965Z,0.80
2018-11-11T12:05:52.078Z,0.93
2018-11-11T12:08:26.335Z,1.13
2018-11-11T12:11:00.359Z,1.07
2018-11-11T12:13:35.859Z,0.97
2018-11-11T12:16:12.338Z,1.02
2018-11-11T12:18:48.693Z,1.23
2018-11-11T12:21:24.079Z,1.10
2018-11-11T12:24:00.393Z,1.10
2018-11-11T12:26:37.347Z,1.07
2018-11-11T12:29:11.761Z,0.95
2018-11-11T12:31:45.757Z,1.25
2018-11-11T12:34:20.998Z,0.90
2018-11-11T12:36:55.027Z,0.95
2018-11-11T12:39:30.133Z,1.20
2018-11-11T12:42:04.840Z,0.93
2018-11-11T12:44:39.562Z,0.80
2018-11-11T12:47:14.122Z,1.12
2018-11-11T12:49:48.443Z,0.90
2018-11-11T12:52:24.948Z,0.95
2018-11-11T12:55:04.049Z,0.93
2018-11-11T12:57:40.963Z,0.82
2018-11-11T13:00:15.177Z,0.80
2018-11-11T13:02:50.078Z,1.20
2018-11-11T13:05:28.140Z,1.00
2018-11-11T13:08:04.479Z,1.23
2018-11-11T13:10:39.414Z,0.98
2018-11-11T13:13:13.699Z,1.10
2018-11-11T13:15:48.269Z,0.85
2018-11-11T13:18:23.185Z,1.40
2018-11-11T13:20:58.716Z,0.88
2018-11-11T13:23:32.846Z,0.80
2018-11-11T13:26:07.864Z,0.98
2018-11-11T13:28:43.076Z,0.90
2018-11-11T13:31:17.188Z,0.98
2018-11-11T13:33:51.342Z,1.00
2018-11-11T13:36:26.440Z,1.00
2018-11-11T13:39:00.480Z,1.30
2018-11-11T13:41:35.996Z,1.00
2018-11-11T13:44:11.068Z,1.08
2018-11-11T13:46:45.092Z,1.35
2018-11-11T13:49:18.969Z,1.40
2018-11-11T13:51:53.033Z,1.30
2018-11-11T13:54:26.961Z,1.30
2018-11-11T13:57:01.050Z,1.08
2018-11-11T13:59:35.111Z,0.88
2018-11-11T14:02:09.026Z,0.98
2018-11-11T14:04:43.088Z,0.98
2018-11-11T14:07:17.283Z,0.95
2018-11-11T14:09:51.463Z,1.10
2018-11-11T14:12:25.590Z,0.95
2018-11-11T14:14:59.565Z,1.10
2018-11-11T14:17:33.573Z,1.12
2018-11-11T14:20:07.580Z,0.95
2018-11-11T14:22:41.525Z,1.12
2018-11-11T14:25:15.634Z,1.40
2018-11-11T14:27:49.733Z,0.85
2018-11-11T14:30:23.830Z,0.98
2018-11-11T14:32:57.831Z,1.42
2018-11-11T14:35:31.882Z,1.50
2018-11-11T14:38:05.942Z,2.05
2018-11-11T14:40:40.612Z,1.55
2018-11-11T14:43:14.745Z,1.87
2018-11-11T14:45:48.802Z,1.20
2018-11-11T14:48:22.849Z,1.70
2018-11-11T14:50:56.789Z,1.50
2018-11-11T14:53:30.744Z,1.67
2018-11-11T14:56:04.793Z,0.90
2018-11-11T14:58:38.921Z,1.00
2018-11-11T15:01:12.933Z,1.00
2018-11-11T15:03:46.926Z,1.10
2018-11-11T15:06:21.022Z,1.33
2018-11-11T15:08:55.129Z,0.85
2018-11-11T15:11:29.161Z,1.48
2018-11-11T15:14:04.048Z,1.12
2018-11-11T15:16:38.006Z,1.00
2018-11-11T15:19:12.992Z,1.10
2018-11-11T15:21:46.708Z,1.73
2018-11-11T15:24:20.600Z,1.30
2018-11-11T15:26:54.620Z,1.03
2018-11-11T15:29:28.661Z,1.23
2018-11-11T15:32:02.701Z,1.10
2018-11-11T15:34:37.469Z,1.10
2018-11-11T15:37:11.437Z,0.90
2018-11-11T15:39:46.212Z,0.80
2018-11-11T15:42:20.139Z,1.10
2018-11-11T15:44:54.266Z,1.03
2018-11-11T15:47:28.919Z,0.93
2018-11-11T15:50:03.705Z,0.93
2018-11-11T15:52:37.878Z,1.03
2018-11-11T15:55:12.352Z,1.27
2018-11-11T15:57:47.751Z,1.50
2018-11-11T16:00:22.638Z,1.00
2018-11-11T16:02:58.132Z,1.13
2018-11-11T16:05:32.234Z,1.33
2018-11-11T16:08:07.091Z,0.83
2018-11-11T16:10:41.322Z,1.07
2018-11-11T16:13:15.530Z,1.10
2018-11-11T16:15:49.901Z,0.87
2018-11-11T16:18:24.719Z,1.37
2018-11-11T16:20:59.197Z,1.10
2018-11-11T16:23:33.611Z,1.40
2018-11-11T16:26:08.652Z,0.77
2018-11-11T16:28:42.718Z,0.93
2018-11-11T16:31:16.822Z,0.87
2018-11-11T16:33:51.768Z,0.90
2018-11-11T16:36:25.785Z,1.10
2018-11-11T16:39:00.734Z,1.00
2018-11-11T16:41:35.028Z,1.00
2018-11-11T16:44:09.648Z,1.27
2018-11-11T16:46:50.123Z,1.03
2018-11-11T17:00:01.240Z,1.20
2018-11-11T17:06:09.547Z,1.20
2018-11-11T17:08:43.531Z,1.23
2018-11-11T17:11:17.468Z,2.53
2018-11-11T17:13:52.307Z,0.90
2018-11-11T17:16:26.347Z,1.37
2018-11-11T17:19:00.334Z,1.00
2018-11-11T17:21:35.283Z,0.90
2018-11-11T17:24:09.723Z,1.00
2018-11-11T17:26:43.849Z,1.57
2018-11-11T17:29:18.934Z,1.50
2018-11-11T17:31:53.941Z,1.10
2018-11-11T17:37:23.422Z,3.70
2018-11-11T17:39:58.237Z,2.90
2018-11-11T17:42:33.605Z,1.83
2018-11-11T17:48:18.802Z,1.50
2018-11-11T17:50:53.923Z,1.50
2018-11-11T17:53:27.882Z,1.17
2018-11-11T17:56:03.739Z,1.13
2018-11-11T17:58:37.680Z,0.93
2018-11-11T18:01:11.847Z,0.90
2018-11-11T18:03:45.961Z,1.03
2018-11-11T18:06:19.988Z,1.80
2018-11-11T18:08:54.051Z,1.70
2018-11-11T18:11:28.899Z,1.60
2018-11-11T18:14:03.033Z,1.20
2018-11-11T18:16:37.869Z,1.30
2018-11-11T18:19:11.981Z,1.20
2018-11-11T18:21:46.077Z,1.20
2018-11-11T18:24:20.046Z,1.23
2018-11-11T18:26:54.093Z,1.10
2018-11-11T18:29:28.127Z,1.60
2018-11-11T18:32:03.701Z,1.10
2018-11-11T18:34:37.958Z,1.43
2018-11-11T18:37:12.105Z,1.30
2018-11-11T18:39:46.314Z,1.50
2018-11-11T18:42:21.193Z,1.33
2018-11-11T18:44:56.777Z,2.00
2018-11-11T18:47:32.106Z,1.90
2018-11-11T18:50:07.689Z,1.53
2018-11-11T18:52:42.075Z,1.50
2018-11-11T18:55:16.034Z,1.40
2018-11-11T18:57:50.752Z,1.33
2018-11-11T19:00:25.442Z,1.83
2018-11-11T19:03:00.730Z,1.50
2018-11-11T19:05:36.418Z,1.73
2018-11-11T19:08:10.633Z,1.60
2018-11-11T19:10:45.056Z,1.50
2018-11-11T19:13:18.910Z,1.50
2018-11-11T19:15:52.903Z,1.10
2018-11-11T19:18:27.218Z,0.93
2018-11-11T19:21:01.779Z,1.03
2018-11-11T19:23:36.985Z,1.10
2018-11-11T19:26:11.788Z,1.20
2018-11-11T19:28:46.293Z,1.13
2018-11-11T19:31:21.124Z,1.07
2018-11-11T19:33:55.599Z,1.03
2018-11-11T19:36:30.334Z,1.00
2018-11-11T19:39:06.465Z,1.00
2018-11-11T19:41:42.039Z,0.97
2018-11-11T19:44:16.140Z,0.73
2018-11-11T19:46:53.187Z,1.10
2018-11-11T19:49:27.532Z,0.80
2018-11-11T19:52:01.855Z,1.17
2018-11-11T19:54:36.000Z,0.90
2018-11-11T19:57:09.981Z,0.90
2018-11-11T19:59:44.087Z,0.67
2018-11-11T20:02:18.191Z,1.00
2018-11-11T20:04:52.289Z,0.97
2018-11-11T20:07:26.312Z,0.77
2018-11-11T20:10:00.241Z,0.90
2018-11-11T20:12:34.952Z,0.63
2018-11-11T20:15:09.047Z,0.67
2018-11-11T20:17:43.570Z,0.73
2018-11-11T20:20:17.681Z,1.00
2018-11-11T20:22:52.453Z,0.60
2018-11-11T20:25:26.498Z,0.80
2018-11-11T20:28:00.725Z,0.87
2018-11-11T20:30:35.779Z,0.80
2018-11-11T20:33:10.664Z,0.73
2018-11-11T20:35:47.048Z,0.83
2018-11-11T20:38:21.241Z,0.80
2018-11-11T20:40:55.243Z,0.90
2018-11-11T20:43:29.305Z,0.90
2018-11-11T20:46:04.506Z,0.90
2018-11-11T20:48:39.969Z,1.13
2018-11-11T20:51:16.314Z,0.83
2018-11-11T20:53:52.664Z,0.80
2018-11-11T20:56:28.382Z,0.87
2018-11-11T20:59:02.849Z,1.10
2018-11-11T21:01:38.660Z,1.17
2018-11-11T21:04:13.159Z,1.07
2018-11-11T21:06:47.614Z,1.20
2018-11-11T21:09:22.637Z,1.10
2018-11-11T21:11:57.584Z,1.10
2018-11-11T21:14:32.185Z,1.10
2018-11-11T21:17:06.340Z,1.20
2018-11-11T21:19:40.783Z,0.97
2018-11-11T21:22:15.546Z,0.93
2018-11-11T21:24:50.543Z,1.10
2018-11-11T21:27:24.812Z,0.97
2018-11-11T21:29:58.844Z,1.10
2018-11-11T21:32:33.104Z,1.20
2018-11-11T21:35:07.130Z,1.20
2018-11-11T21:37:41.254Z,1.20
2018-11-11T21:40:15.458Z,1.10
2018-11-11T21:42:50.462Z,1.17
2018-11-11T21:45:28.411Z,1.27
2018-11-11T21:48:06.327Z,1.13
2018-11-11T21:50:41.185Z,2.77
2018-11-11T21:53:20.769Z,1.17
2018-11-11T21:56:00.313Z,0.93
2018-11-11T21:58:35.849Z,1.00
2018-11-11T22:01:22.593Z,1.10
2018-11-11T22:04:01.666Z,1.30
2018-11-11T22:06:36.250Z,1.20
2018-11-11T22:09:16.134Z,1.50
2018-11-11T22:11:54.613Z,1.30
2018-11-11T22:14:35.153Z,1.40
2018-11-11T22:17:11.964Z,1.40
2018-11-11T22:19:46.378Z,1.20
2018-11-11T22:22:23.595Z,1.23
2018-11-11T22:24:58.260Z,1.50
2018-11-11T22:27:32.447Z,1.27
2018-11-11T22:30:07.544Z,1.40
2018-11-11T22:32:43.466Z,1.13
2018-11-11T22:35:20.893Z,1.40
2018-11-11T22:38:01.366Z,1.50
2018-11-11T22:40:40.173Z,1.30
2018-11-11T22:43:15.157Z,1.30
2018-11-11T22:45:52.075Z,1.10
2018-11-11T22:48:26.976Z,1.30
2018-11-11T22:51:06.717Z,1.20
2018-11-11T22:53:45.206Z,1.40
2018-11-11T22:56:19.308Z,1.30
2018-11-11T22:58:53.437Z,1.27
2018-11-11T23:01:27.484Z,1.40
2018-11-11T23:04:01.549Z,1.37
2018-11-11T23:06:35.654Z,1.20
2018-11-11T23:09:09.723Z,1.30
2018-11-11T23:11:43.789Z,1.10
2018-11-11T23:14:18.503Z,1.33
2018-11-11T23:16:52.517Z,1.27
2018-11-11T23:19:27.285Z,1.40
2018-11-11T23:22:01.384Z,1.20
2018-11-11T23:24:35.297Z,1.17
2018-11-11T23:27:09.934Z,1.40
2018-11-11T23:29:43.968Z,1.50
2018-11-11T23:32:18.221Z,1.40
2018-11-11T23:34:52.298Z,1.60
2018-11-11T23:37:26.454Z,1.30
2018-11-11T23:40:00.457Z,1.47
2018-11-11T23:42:34.464Z,1.67
2018-11-11T23:45:08.477Z,1.27
2018-11-11T23:47:42.631Z,1.40
2018-11-11T23:50:16.610Z,1.30
2018-11-11T23:52:50.685Z,1.50
2018-11-11T23:55:25.494Z,1.60
2018-11-11T23:57:59.621Z,1.57
